新東京国際空港の過去48時間の天気

新東京国際空港 (Tokyo/New Tokyo Intl)

現在時刻: 10/16 15:49 JST (10/16 06:49 UTC) 以下の時間は現地時間です。

過去48時間のMETAR気象情報
時間 風向 風速(m/s) 視程 気温(℃) 湿度(%) 気圧(hPa) 天気現象
16 15:30 北北東 4 10km以上 20 83 1012
16 15:00 北北東 4 10km以上 20 78 1012
16 14:30 北東 4 10km以上 20 78 1012
16 14:00 北北東 4 10km以上 20 78 1012
16 13:30 北北東 4 10km以上 20 78 1012
16 13:00 北北東 3 10km以上 20 78 1012
16 12:30 北北東 3 10km以上 20 78 1012
16 12:00 北北東 3 10km以上 20 73 1013
16 11:30 3 10km以上 20 73 1014
16 11:00 3 10km以上 19 78 1014
16 10:30 北北東 4 10km以上 20 73 1014
16 10:00 3 10km以上 19 78 1015
16 09:30 北北西 3 10km以上 19 83 1015
16 09:00 北北西 3 10km以上 18 83 1015
16 08:30 北西 2 10km以上 17 88 1015
16 08:00 北西 2 10km以上 16 94 1016
16 07:30 北西 2 8000m 16 94 1016
16 07:00 北北西 2 7000m 15 100 1015
16 06:30 北西 2 7000m 15 94 1015 地霧
16 06:00 北西 1 7000m 14 100 1015 地霧
16 05:30 北西 2 7000m 15 94 1015 地霧
16 05:00 北北西 2 10km以上 15 94 1015
16 04:30 北北西 2 10km以上 15 94 1015
16 04:00 北北西 3 8000m 15 94 1015
16 03:30 北北西 3 8000m 15 94 1015
16 03:00 北北西 3 8000m 15 100 1016
16 02:30 北北西 2 8000m 16 94 1016
16 02:00 4 10km以上 16 94 1015
16 01:30 3 10km以上 16 94 1015
16 01:00 北北西 3 10km以上 16 94 1015
16 00:30 北北西 3 10km以上 16 94 1016
16 00:00 北北西 2 10km以上 17 88 1016
15 23:30 3 10km以上 17 88 1016
15 23:00 3 10km以上 17 88 1016
15 22:30 北北東 2 10km以上 17 88 1016
15 22:00 北北東 2 10km以上 17 88 1017
15 21:30 北北東 3 10km以上 17 88 1017
15 21:00 4 10km以上 18 83 1017
15 20:30 4 10km以上 18 83 1017
15 20:00 3 10km以上 17 88 1017 弱いしゅう雨
15 19:30 3 10km以上 17 88 1017 弱いしゅう雨
15 19:00 北北東 4 10km以上 18 83 1017 弱いしゅう雨
15 18:30 北北東 4 10km以上 18 83 1017 弱いしゅう雨
15 18:00 北北東 3 10km以上 18 83 1016 弱いしゅう雨
15 17:30 東北東 2 10km以上 18 83 1016 弱いしゅう雨
15 17:00 東北東 2 10km以上 18 77 1017 弱いしゅう雨
15 16:30 北東 2 10km以上 18 83 1017
15 16:00 北東 3 10km以上 19 73 1017
15 15:30 北北東 3 10km以上 19 73 1017
15 15:00 北北東 4 10km以上 19 73 1017
15 14:30 北東 4 10km以上 20 68 1017
15 14:00 北東 3 10km以上 20 73 1017
15 13:30 東北東 2 10km以上 20 64 1017
15 13:00 北東 3 10km以上 20 64 1017
15 12:30 東北東 3 10km以上 20 68 1018
15 12:00 東北東 3 10km以上 20 78 1018
15 11:30 東北東 3 10km以上 19 83 1018
15 11:00 北東 3 10km以上 19 83 1019
15 10:30 2 10km以上 19 83 1019
15 10:00 北北東 2 10km以上 18 88 1020
15 09:30 北北東 3 10km以上 18 83 1019
15 09:00 北北東 3 10km以上 17 88 1020
15 08:30 北北西 3 10km以上 16 94 1020
15 08:00 北北西 3 10km以上 15 100 1020
15 07:30 北北西 2 10km以上 15 94 1020
15 07:00 北西 2 10km以上 15 94 1020
15 06:30 不定 1 10km以上 15 94 1020
15 06:00 2 10km以上 15 94 1019
15 05:30 2 10km以上 14 100 1019
15 05:00 2 10km以上 14 94 1020
15 04:30 北北西 1 10km以上 14 100 1020
15 04:00 2 10km以上 14 94 1019 地霧
15 03:30 2 10km以上 14 94 1019
15 03:00 2 10km以上 15 94 1020
15 02:30 2 10km以上 14 100 1020
15 02:00 2 10km以上 15 94 1020
15 01:30 北北西 2 10km以上 15 94 1020
15 01:00 北北西 2 10km以上 15 94 1020
15 00:30 3 10km以上 15 94 1020
15 00:00 西 1 10km以上 15 94 1020
14 23:30 不定 1 10km以上 15 94 1020
14 23:00 北西 1 10km以上 15 94 1020
14 22:30 不定 1 10km以上 16 88 1020
14 22:00 北北東 3 10km以上 17 77 1020
14 21:30 北北東 2 10km以上 17 77 1020
14 21:00 北北東 3 10km以上 17 77 1020
14 20:30 北北東 3 10km以上 17 77 1020
14 20:00 北北東 3 10km以上 16 82 1020
14 19:30 北北東 3 10km以上 17 77 1020
14 19:00 北北東 3 10km以上 17 77 1020
14 18:30 北北東 3 10km以上 18 73 1020
14 18:00 北北東 3 10km以上 18 73 1020
14 17:30 北北東 3 10km以上 18 73 1020
14 17:00 北東 3 10km以上 18 77 1019
14 16:30 北東 2 10km以上 18 83 1019
14 16:00 北東 2 10km以上 19 78 1019
RJAA 160630Z 03007KT 360V070 9999 FEW015 OVC/// 20/17 Q1012 NOSIG
RJAA 160600Z 02008KT 360V060 9999 FEW015 SCT050 BKN/// 20/16 Q1012 NOSIG
RJAA 160530Z 04007KT 9999 FEW015 SCT020 BKN050 20/16 Q1012 NOSIG RMK 1CU015 3CU020 6SC050 A2990
RJAA 160500Z 03007KT 340V070 9999 FEW015 BKN050 BKN180 20/16 Q1012 NOSIG RMK 1CU015 6SC050 7AC180 A2990
RJAA 160430Z 03007KT 9999 FEW015 BKN050 BKN180 20/16 Q1012 NOSIG RMK 1CU015 6SC050 7AC180 A2990
RJAA 160400Z 02006KT 9999 FEW018 BKN050 BKN180 20/16 Q1012 NOSIG RMK 2CU018 5SC050 7AC180 A2990
RJAA 160330Z 02006KT 360V070 9999 FEW020 BKN060 BKN180 20/16 Q1012 NOSIG RMK 2CU020 5SC060 7AC180 A2990
RJAA 160300Z 02006KT 330V050 9999 FEW020 BKN050 BKN170 20/15 Q1013 NOSIG RMK 1CU020 5SC050 7AC170 A2993
RJAA 160230Z 01005KT 320V080 9999 FEW020 BKN050 BKN/// 20/15 Q1014 NOSIG RMK 1CU020 5SC050 A2995
RJAA 160200Z 01006KT 310V060 9999 FEW015 BKN050 BKN070 19/15 Q1014 NOSIG RMK 1CU015 6SC050 7AC070 A2995
RJAA 160130Z 02007KT 340V050 9999 FEW015 SCT018 BKN050 20/15 Q1014 NOSIG RMK 1CU015 3SC018 7SC050 A2996
RJAA 160100Z 01006KT 320V060 9999 FEW025 SCT070 BKN190 19/15 Q1015 NOSIG RMK 1CU025 3AC070 7AC190 A2997
RJAA 160030Z 34006KT 300V010 9999 FEW020 SCT070 BKN/// 19/16 Q1015 NOSIG RMK 1CU020 3AC070 A2997
RJAA 160000Z 33005KT 9999 FEW020 SCT050 BKN/// 18/15 Q1015 NOSIG
RJAA 152330Z 32004KT 9999 FEW020 BKN070 BKN/// 17/15 Q1015 NOSIG RMK 1CU020 5AC070 A3000
RJAA 152300Z 32004KT 9999 FEW020 SCT060 BKN080 16/15 Q1016 NOSIG RMK 1CU020 4SC060 7AC080 A3001
RJAA 152230Z 32003KT 8000 FEW015 BKN060 BKN080 16/15 Q1016 NOSIG RMK 1CU015 5SC060 7AC080 A3001
RJAA 152200Z 33003KT 7000 FEW015 SCT070 BKN/// 15/15 Q1015 NOSIG RMK 1CU015 4AC070 A3000
RJAA 152130Z 32003KT 7000 MIFG FEW015 SCT060 BKN/// 15/14 Q1015 NOSIG
RJAA 152100Z 32002KT 7000 R34L/P2000N R34R/P2000N MIFG FEW015 BKN/// 14/14 Q1015 NOSIG RMK 1CU015 A2999
RJAA 152030Z 32003KT 7000 MIFG FEW015 BKN/// 15/14 Q1015 NOSIG
RJAA 152000Z 33004KT 9999 FEW015 BKN/// 15/14 Q1015 NOSIG
RJAA 151930Z 33004KT 9999 FEW020 SCT070 BKN/// 15/14 Q1015 NOSIG
RJAA 151900Z 33005KT 8000 FEW020 SCT070 BKN/// 15/14 Q1015 NOSIG RMK 1CU020 3AC070 A2999
RJAA 151830Z 33005KT 8000 FEW020 SCT080 BKN/// 15/14 Q1015 NOSIG
RJAA 151800Z 33005KT 8000 FEW020 BKN080 15/15 Q1016 NOSIG RMK 1CU020 6AC080 A3000
RJAA 151730Z 33004KT 8000 FEW020 BKN090 16/15 Q1016 NOSIG RMK 1CU020 6AC090 A3000
RJAA 151700Z 01008KT 9999 FEW020 SCT080 16/15 Q1015 NOSIG RMK 1CU020 3AC080 A2999
RJAA 151630Z 01006KT 9999 FEW020 BKN080 16/15 Q1015 NOSIG RMK 1CU020 7AC080 A2999
RJAA 151600Z 33005KT 9999 FEW020 BKN080 16/15 Q1015 NOSIG RMK 1CU020 6AC080 A3000
RJAA 151530Z 34006KT 9999 FEW020 BKN080 16/15 Q1016 NOSIG RMK 1CU020 7AC080 A3001
RJAA 151500Z 33003KT 9999 FEW020 BKN080 17/15 Q1016 NOSIG RMK 1CU020 7AC080 A3001
RJAA 151430Z 35005KT 9999 FEW020 BKN090 17/15 Q1016 NOSIG RMK 1CU020 7AC090 A3001
RJAA 151400Z 36005KT 9999 FEW020 BKN090 17/15 Q1016 NOSIG RMK 1CU020 7AC090 A3002
RJAA 151330Z 03004KT 9999 FEW020 BKN080 17/15 Q1016 NOSIG RMK 1CU020 7AC080 A3003
RJAA 151300Z 02004KT 340V050 9999 FEW020 BKN080 17/15 Q1017 NOSIG RMK 1CU020 7AC080 A3003
RJAA 151230Z 02005KT 9999 FEW020 BKN080 17/15 Q1017 NOSIG RMK 1CU020 7AC080 A3003
RJAA 151200Z 01007KT 9999 FEW030 BKN090 18/15 Q1017 NOSIG RMK 1CU030 7AC090 A3004
RJAA 151130Z 01007KT 9999 FEW030 BKN090 18/15 Q1017 NOSIG RMK 1CU030 7AC090 A3004
RJAA 151100Z 35006KT 9999 -SHRA FEW030 BKN090 17/15 Q1017 NOSIG RMK 2CU030 7AC090 A3004
RJAA 151030Z 36006KT 330V040 9999 -SHRA FEW030 BKN100 17/15 Q1017 NOSIG RMK 1CU030 7AC100 A3004
RJAA 151000Z 02008KT 9999 -SHRA FEW020 BKN090 18/15 Q1017 NOSIG RMK 1CU020 7AC090 A3004
RJAA 150930Z 02007KT 9999 -SHRA FEW020 BKN110 18/15 Q1017 NOSIG RMK 1CU020 7AC110 A3003
RJAA 150900Z 02006KT 350V070 9999 -SHRA FEW020 SCT070 BKN100 18/15 Q1016 NOSIG RMK 1CU020 3AC070 7AC100 A3003
RJAA 150830Z 06004KT 010V100 9999 -SHRA FEW020 BKN100 18/15 Q1016 BECMG 05005KT
RJAA 150800Z 07004KT 020V110 9999 -SHRA FEW020 BKN100 18/14 Q1017 BECMG 05005KT RMK 1CU020 7AC100 A3003
RJAA 150730Z 05004KT 010V110 9999 FEW020 BKN100 18/15 Q1017 NOSIG RMK 1CU020 7AC100 A3003 MOD TURB OBS AT 0725Z BINKS 9000FT IN DES B773 CPA450
RJAA 150700Z 05006KT 010V090 9999 FEW020 BKN110 19/14 Q1017 NOSIG RMK 1CU020 7AC110 A3003
RJAA 150630Z 03006KT 9999 FEW020 BKN120 19/14 Q1017 NOSIG RMK 1CU020 7AC120 A3004
RJAA 150600Z 03008KT 9999 FEW020 BKN120 19/14 Q1017 NOSIG RMK 1CU020 7AC120 A3004
RJAA 150530Z 05007KT 010V110 9999 FEW020 SCT130 BKN180 20/14 Q1017 NOSIG RMK 1CU020 4AC130 7AC180 A3003
RJAA 150500Z 04005KT 360V080 9999 FEW020 BKN090 20/15 Q1017 NOSIG RMK 1CU020 7AS090 A3003
RJAA 150430Z 07004KT 360V120 9999 FEW020 OVC090 20/13 Q1017 BECMG 05005KT RMK 1CU020 8AS090 A3005
RJAA 150400Z 05005KT 010V090 9999 FEW020 SCT035 BKN100 20/13 Q1017 NOSIG RMK 1CU020 3CU035 6AC100 A3005
RJAA 150330Z 07005KT 020V110 9999 FEW020 SCT150 BKN180 20/14 Q1018 BECMG 05005KT RMK 1CU020 4AC150 5AC180 A3006
RJAA 150300Z 07005KT 360V110 9999 FEW015 BKN190 BKN/// 20/16 Q1018 BECMG 05005KT RMK 1CU015 5AC190 A3007
RJAA 150230Z 07006KT 030V100 9999 FEW015 OVC/// 19/16 Q1018 BECMG 05005KT
RJAA 150200Z 04005KT 350V100 9999 FEW025 SCT150 BKN/// 19/16 Q1019 NOSIG RMK 1CU025 4AC150 A3010
RJAA 150130Z 01003KT 340V060 9999 FEW025 SCT050 BKN150 19/16 Q1019 NOSIG RMK 1CU025 3SC050 6AC150 A3012
RJAA 150100Z 02003KT 320V050 9999 FEW030 SCT050 BKN130 18/16 Q1020 NOSIG RMK 1CU030 3SC050 7AC130 A3012
RJAA 150030Z 02006KT 9999 FEW030 BKN130 BKN/// 18/15 Q1019 NOSIG RMK 1CU030 6AC130 A3012
RJAA 150000Z 02006KT 9999 FEW020 BKN150 17/15 Q1020 NOSIG RMK 1CU020 7AC150 A3013 MOD TURB OBS AT 2349Z AROUND BINKS 10000FT B738 JAL3052 AND MOD TURB OBS AT 2352Z 13NM N BINKS BTN 11000FT AND 8000FT IN DES B738 JAL3052
RJAA 142330Z 34006KT 9999 FEW020 SCT050 BKN150 16/15 Q1020 NOSIG RMK 1CU020 3SC050 7AC150 A3014
RJAA 142300Z 33005KT 9999 FEW020 SCT050 BKN150 15/15 Q1020 NOSIG RMK 1CU020 3SC050 7AC150 A3015
RJAA 142230Z 33003KT 9999 FEW020 BKN150 15/14 Q1020 NOSIG RMK 1CU020 7AC150 A3013
RJAA 142200Z 31003KT 9999 FEW020 BKN150 15/14 Q1020 NOSIG RMK 1CU020 7AC150 A3013
RJAA 142130Z VRB02KT 9999 FEW020 BKN150 15/14 Q1020 NOSIG RMK 1CU020 7AC150 A3013
RJAA 142100Z 35004KT 9999 FEW020 BKN150 15/14 Q1019 NOSIG RMK 1CU020 7AC150 A3011
RJAA 142030Z 36004KT 9999 FEW020 BKN170 14/14 Q1019 NOSIG RMK 1CU020 7AC170 A3011
RJAA 142000Z 01004KT 9999 FEW020 BKN180 14/13 Q1020 NOSIG RMK 1CU020 7AC180 A3012
RJAA 141930Z 34002KT 9999 FEW020 BKN180 14/14 Q1020 NOSIG RMK 1CU020 7AC180 A3012
RJAA 141900Z 01004KT 9999 MIFG NSC 14/13 Q1019 NOSIG RMK 1SC050 6AC180 A3010
RJAA 141830Z 36004KT CAVOK 14/13 Q1019 NOSIG RMK A3011
RJAA 141800Z 35003KT 9999 FEW025 BKN/// 15/14 Q1020 NOSIG
RJAA 141730Z 35004KT 9999 FEW025 BKN/// 14/14 Q1020 NOSIG
RJAA 141700Z 35004KT 9999 FEW025 BKN/// 15/14 Q1020 NOSIG RMK 1CU025 A3012
RJAA 141630Z 33004KT 9999 FEW025 BKN/// 15/14 Q1020 NOSIG RMK 1CU025 A3012
RJAA 141600Z 33004KT 9999 FEW025 BKN/// 15/14 Q1020 NOSIG RMK 1CU025 A3013
RJAA 141530Z 35005KT 9999 FEW025 BKN/// 15/14 Q1020 NOSIG
RJAA 141500Z 28002KT 9999 FEW025 SCT080 BKN/// 15/14 Q1020 NOSIG RMK 1CU025 3AC080 A3014
RJAA 141430Z VRB01KT 9999 FEW025 SCT050 BKN/// 15/14 Q1020 NOSIG RMK 1CU025 3SC050 A3014
RJAA 141400Z 31002KT 9999 FEW025 BKN050 BKN/// 15/14 Q1020 NOSIG RMK 1CU025 5SC050 A3014
RJAA 141330Z VRB02KT 9999 FEW025 BKN050 16/14 Q1020 NOSIG RMK 1CU025 7SC050 A3014
RJAA 141300Z 02005KT 9999 FEW025 BKN045 17/13 Q1020 NOSIG RMK 1CU025 7SC045 A3013
RJAA 141230Z 02004KT 350V060 9999 FEW025 BKN045 17/13 Q1020 NOSIG RMK 1CU025 7SC045 A3014
RJAA 141200Z 03006KT 9999 FEW025 BKN045 BKN/// 17/13 Q1020 NOSIG
RJAA 141130Z 03006KT 9999 FEW025 BKN/// 17/13 Q1020 NOSIG RMK 1CU025 A3013
RJAA 141100Z 02006KT 350V050 9999 FEW025 BKN/// 16/13 Q1020 NOSIG RMK 1CU025 A3013
RJAA 141030Z 03006KT 340V060 9999 FEW025 BKN/// 17/13 Q1020 NOSIG
RJAA 141000Z 03006KT 360V070 9999 FEW025 SCT100 BKN/// 17/13 Q1020 NOSIG RMK 1CU025 4AC100 A3013
RJAA 140930Z 03006KT 350V060 9999 FEW015 BKN/// 18/13 Q1020 NOSIG
RJAA 140900Z 03006KT 360V070 9999 FEW015 BKN/// 18/13 Q1020 NOSIG RMK 1CU015 A3013
RJAA 140830Z 03005KT 340V070 9999 FEW015 SCT045 BKN/// 18/13 Q1020 NOSIG
RJAA 140800Z 04005KT 010V070 9999 FEW015 SCT045 BKN/// 18/14 Q1019 NOSIG
RJAA 140730Z 05003KT 360V130 9999 FEW015 BKN045 18/15 Q1019 NOSIG RMK 1CU015 6SC045 A3011
RJAA 140700Z 05004KT 340V100 9999 FEW015 BKN040 19/15 Q1019 NOSIG RMK 1CU015 7SC040 A3011